Time;durP1;ratioP1;P1;durP2;ratioP2;P2;SDS_P1;SDS_P2;PMS_P1;PMS_P2;Temp;Humidity;BMP_temperature;BMP_pressure;BME280_temperature;BME280_humidity;BME280_pressure;Samples;Min_cycle;Max_cycle;Signal;HPM_P1;HPM_P2
2021/07/02 19:52:33;;;;;;;9.60;6.93;;;;;;;16.72;87.50;98648.88;5140580;27;20451;-63
2021/07/02 19:54:59;;;;;;;9.50;6.72;;;;;;;16.68;87.66;98644.59;5120232;28;20030;-63
2021/07/02 19:57:25;;;;;;;8.57;6.28;;;;;;;16.59;87.62;98644.16;5121638;28;20325;-63
2021/07/02 19:59:50;;;;;;;10.45;7.03;;;;;;;16.57;88.05;98654.84;5120911;28;20031;-63
2021/07/02 20:02:16;;;;;;;11.95;7.53;;;;;;;16.52;88.28;98654.16;5121584;28;20306;-63
2021/07/02 20:04:41;;;;;;;9.00;7.00;;;;;;;16.46;88.64;98653.56;5120489;28;20027;-63
2021/07/02 20:07:07;;;;;;;9.43;6.43;;;;;;;16.38;87.27;98656.53;5120264;28;20016;-63
2021/07/02 20:09:32;;;;;;;8.23;6.53;;;;;;;16.37;88.21;98648.63;5105717;28;20338;-63
2021/07/02 20:11:58;;;;;;;8.77;6.80;;;;;;;16.26;87.80;98650.88;5121404;28;20019;-66
2021/07/02 20:14:24;;;;;;;8.68;6.72;;;;;;;16.21;87.86;98648.41;5121383;28;20016;-64
2021/07/02 20:16:49;;;;;;;11.82;7.03;;;;;;;16.27;88.40;98648.16;5121339;28;20050;-63
2021/07/02 20:19:15;;;;;;;10.73;7.75;;;;;;;16.00;87.96;98643.97;5121311;28;20020;-64
2021/07/02 20:21:41;;;;;;;9.13;7.10;;;;;;;15.94;87.65;98644.22;5121475;28;20282;-63
2021/07/02 20:24:07;;;;;;;11.05;7.05;;;;;;;15.92;87.75;98640.78;5110277;28;20083;-63
2021/07/02 20:26:33;;;;;;;10.15;6.55;;;;;;;15.85;88.43;98639.25;5108236;28;20311;-63
2021/07/02 20:28:59;;;;;;;12.38;7.10;;;;;;;15.93;88.33;98647.81;5120466;28;20027;-63
2021/07/02 20:31:25;;;;;;;14.35;6.68;;;;;;;15.87;87.66;98653.34;5122447;28;20023;-63
2021/07/02 20:33:50;;;;;;;8.75;6.97;;;;;;;15.94;87.74;98656.59;5120036;28;20023;-63
2021/07/02 20:36:17;;;;;;;11.45;6.85;;;;;;;15.81;87.03;98655.38;5119955;28;20023;-63
2021/07/02 20:38:42;;;;;;;8.95;6.72;;;;;;;15.66;87.86;98659.50;5120312;28;20045;-63
2021/07/02 20:41:08;;;;;;;9.93;6.30;;;;;;;15.56;88.20;98660.78;5115890;28;20016;-63
2021/07/02 20:43:35;;;;;;;9.90;7.35;;;;;;;15.67;88.19;98655.94;5107465;28;20384;-63
2021/07/02 20:46:01;;;;;;;12.80;6.45;;;;;;;15.51;87.83;98664.53;5110917;28;20020;-63
2021/07/02 20:48:27;;;;;;;11.30;6.80;;;;;;;15.36;87.95;98665.97;5119842;28;20103;-63
2021/07/02 20:50:54;;;;;;;10.15;7.10;;;;;;;15.44;88.68;98655.94;5103055;28;20114;-63
2021/07/02 20:53:20;;;;;;;8.70;7.30;;;;;;;15.48;88.63;98662.88;5086984;28;20020;-63
2021/07/02 20:55:46;;;;;;;9.60;6.75;;;;;;;15.33;88.25;98666.06;5085773;28;20016;-63
2021/07/02 20:58:15;;;;;;;8.18;6.80;;;;;;;15.19;88.63;98666.59;5085359;28;20097;-63
2021/07/02 21:00:42;;;;;;;8.80;6.55;;;;;;;15.29;88.56;98664.47;5085997;28;20315;-63
2021/07/02 21:03:08;;;;;;;12.27;7.38;;;;;;;15.19;88.83;98668.41;5086672;28;20016;-63
2021/07/02 21:05:33;;;;;;;9.52;6.53;;;;;;;15.16;88.78;98669.34;5105905;28;20047;-63
2021/07/02 21:08:02;;;;;;;10.15;6.85;;;;;;;15.04;89.05;98671.59;5105849;28;20371;-63
2021/07/02 21:10:28;;;;;;;8.60;6.45;;;;;;;14.91;88.57;98675.63;5105568;28;20226;-63
2021/07/02 21:12:53;;;;;;;11.43;6.88;;;;;;;14.86;89.17;98675.78;5105775;28;20027;-63
2021/07/02 21:15:18;;;;;;;9.50;7.05;;;;;;;14.94;89.59;98667.56;5095478;28;20024;-63
2021/07/02 21:17:44;;;;;;;9.88;7.40;;;;;;;15.03;89.49;98672.53;5086324;28;20045;-63
2021/07/02 21:20:09;;;;;;;12.07;7.22;;;;;;;15.00;89.31;98673.47;5086315;28;20267;-63
2021/07/02 21:22:35;;;;;;;8.23;7.20;;;;;;;14.71;89.03;98659.53;5104260;28;20027;-63
2021/07/02 21:25:00;;;;;;;9.20;6.47;;;;;;;14.70;89.95;98673.72;5106746;28;20027;-63
2021/07/02 21:27:26;;;;;;;10.25;7.20;;;;;;;14.80;89.88;98675.13;5106440;28;20334;-63
2021/07/02 21:29:51;;;;;;;9.90;6.70;;;;;;;14.68;89.07;98665.81;5106298;28;20019;-63
2021/07/02 21:32:17;;;;;;;10.85;6.18;;;;;;;14.67;89.69;98663.22;5106353;28;20019;-63
2021/07/02 21:34:44;;;;;;;10.18;6.95;;;;;;;14.59;89.68;98666.13;5106298;28;20031;-63
2021/07/02 21:37:09;;;;;;;10.00;7.38;;;;;;;14.64;89.84;98658.91;5102458;28;20047;-63
2021/07/02 21:39:35;;;;;;;13.73;7.15;;;;;;;14.59;89.64;98660.00;5101336;28;20214;-63
2021/07/02 21:42:00;;;;;;;8.77;7.20;;;;;;;14.67;89.76;98649.97;5121830;28;20042;-63
2021/07/02 21:44:25;;;;;;;10.27;6.47;;;;;;;14.56;89.28;98649.50;5109442;28;20030;-63
2021/07/02 21:46:51;;;;;;;9.38;6.97;;;;;;;14.52;89.17;98658.44;5126501;28;20023;-63
2021/07/02 21:49:16;;;;;;;9.88;7.28;;;;;;;14.56;90.29;98654.81;5126438;28;20027;-63
2021/07/02 21:51:42;;;;;;;9.07;6.82;;;;;;;14.61;89.69;98658.13;5113489;28;20324;-63
2021/07/02 21:54:07;;;;;;;8.55;7.05;;;;;;;14.51;89.45;98646.13;5105920;28;20032;-63
2021/07/02 21:56:32;;;;;;;9.00;6.63;;;;;;;14.49;89.57;98653.28;5105883;28;20051;-63
2021/07/02 21:58:58;;;;;;;10.90;6.57;;;;;;;14.46;88.92;98648.09;5105782;28;20357;-63
2021/07/02 22:01:25;;;;;;;10.05;6.75;;;;;;;14.50;88.73;98644.41;5104410;28;20024;-63
2021/07/02 22:03:50;;;;;;;12.15;6.45;;;;;;;14.21;88.46;98637.41;5104506;28;20024;-63
2021/07/02 22:06:15;;;;;;;11.50;6.55;;;;;;;14.20;89.43;98641.00;5105495;28;20038;-63
2021/07/02 22:08:42;;;;;;;13.60;7.78;;;;;;;14.26;90.29;98634.66;5105727;28;20082;-63
2021/07/02 22:11:08;;;;;;;8.50;7.00;;;;;;;14.19;89.85;98633.09;5103692;28;20062;-63
2021/07/02 22:13:33;;;;;;;15.60;7.07;;;;;;;14.20;90.40;98629.53;5105355;28;20027;-63
2021/07/02 22:15:58;;;;;;;8.80;6.43;;;;;;;14.17;90.50;98629.63;5103326;28;20023;-63
2021/07/02 22:18:24;;;;;;;10.18;7.50;;;;;;;14.13;90.16;98628.00;5105442;28;20078;-63
2021/07/02 22:20:49;;;;;;;10.10;8.20;;;;;;;14.18;90.07;98631.38;5095879;28;20211;-63
2021/07/02 22:23:15;;;;;;;14.55;7.47;;;;;;;14.27;90.11;98637.25;5087221;28;20055;-63
2021/07/02 22:25:40;;;;;;;9.63;8.15;;;;;;;14.05;89.35;98635.34;5084979;28;20024;-63
2021/07/02 22:28:06;;;;;;;10.35;7.18;;;;;;;14.09;89.74;98631.69;5084955;28;20092;-63
2021/07/02 22:30:32;;;;;;;9.80;7.10;;;;;;;14.04;89.49;98626.53;5084845;28;20029;-63
2021/07/02 22:32:57;;;;;;;10.40;7.60;;;;;;;14.06;89.58;98621.19;5115945;28;20030;-63
2021/07/02 22:35:22;;;;;;;10.77;7.80;;;;;;;14.01;89.65;98624.00;5125515;28;20086;-63
2021/07/02 22:37:48;;;;;;;9.77;7.63;;;;;;;14.04;89.58;98618.59;5125485;28;20069;-63
2021/07/02 22:40:14;;;;;;;15.15;9.57;;;;;;;13.96;88.79;98625.06;5117336;28;20058;-63
2021/07/02 22:42:39;;;;;;;11.88;7.03;;;;;;;14.04;89.47;98626.53;5104879;28;20024;-63
2021/07/02 22:45:06;;;;;;;10.80;8.55;;;;;;;13.98;89.62;98628.53;5102320;28;20024;-63
2021/07/02 22:47:32;;;;;;;10.25;7.78;;;;;;;13.82;89.46;98627.28;5087325;28;20021;-63
2021/07/02 22:49:57;;;;;;;10.77;7.25;;;;;;;13.78;89.38;98620.38;5104751;28;20061;-63
2021/07/02 22:52:23;;;;;;;9.85;6.60;;;;;;;13.74;89.95;98621.38;5102738;28;20032;-63
2021/07/02 22:54:48;;;;;;;9.30;7.05;;;;;;;13.75;90.45;98615.16;5088208;28;20028;-63
2021/07/02 22:57:14;;;;;;;8.50;6.65;;;;;;;13.70;90.23;98625.06;5084471;28;20024;-63
2021/07/02 22:59:41;;;;;;;10.52;6.70;;;;;;;13.77;90.04;98618.66;5104628;28;20031;-63
2021/07/02 23:02:08;;;;;;;8.70;6.15;;;;;;;13.87;89.92;98617.44;5104594;28;20020;-63
2021/07/02 23:04:34;;;;;;;11.15;5.85;;;;;;;13.81;89.80;98613.22;5104630;28;20047;-63
2021/07/02 23:07:00;;;;;;;9.40;7.55;;;;;;;13.67;89.52;98620.69;5104604;28;20086;-64
2021/07/02 23:09:26;;;;;;;8.50;6.70;;;;;;;13.62;89.23;98609.41;5104479;28;20031;-63
2021/07/02 23:11:51;;;;;;;9.45;7.07;;;;;;;13.61;90.09;98617.41;5104330;28;20028;-63
2021/07/02 23:14:17;;;;;;;7.60;4.80;;;;;;;13.46;90.27;98616.09;5102185;28;20073;-63
2021/07/02 23:16:42;;;;;;;8.73;5.63;;;;;;;13.47;91.20;98614.31;5104044;28;20087;-63
2021/07/02 23:19:08;;;;;;;8.95;6.15;;;;;;;13.41;90.34;98619.81;5104244;28;20028;-63
2021/07/02 23:21:34;;;;;;;11.00;5.88;;;;;;;13.34;90.33;98624.41;5104183;28;20031;-63
2021/07/02 23:23:59;;;;;;;8.93;5.88;;;;;;;13.45;90.89;98616.16;5104134;28;20031;-63
2021/07/02 23:26:25;;;;;;;8.13;6.65;;;;;;;13.50;91.07;98630.06;5104219;28;20210;-63
2021/07/02 23:28:50;;;;;;;10.07;7.35;;;;;;;13.44;91.25;98619.72;5104111;28;20024;-63
2021/07/02 23:31:16;;;;;;;10.63;7.00;;;;;;;13.41;90.89;98625.09;5103999;28;20066;-63
2021/07/02 23:33:42;;;;;;;11.32;7.85;;;;;;;13.22;91.17;98618.63;5102014;28;20219;-63
2021/07/02 23:36:08;;;;;;;8.13;6.28;;;;;;;13.37;90.52;98620.78;5104028;28;20031;-63
2021/07/02 23:38:35;;;;;;;8.43;6.45;;;;;;;13.36;90.53;98619.06;5104021;28;20083;-63
2021/07/02 23:41:02;;;;;;;9.02;6.30;;;;;;;13.35;90.82;98620.00;5104009;28;20237;-63
2021/07/02 23:43:27;;;;;;;10.60;7.00;;;;;;;13.30;90.77;98616.63;5103906;28;20020;-63
2021/07/02 23:45:54;;;;;;;8.73;6.00;;;;;;;13.37;90.53;98623.44;5103929;28;20026;-63
2021/07/02 23:48:19;;;;;;;8.90;6.53;;;;;;;13.32;90.54;98620.09;5104192;28;20020;-63
2021/07/02 23:50:45;;;;;;;9.30;7.05;;;;;;;13.21;90.55;98616.88;5102985;28;20097;-65
2021/07/02 23:53:10;;;;;;;9.02;7.03;;;;;;;13.23;91.50;98609.78;5103928;28;20027;-65
2021/07/02 23:55:36;;;;;;;10.20;6.22;;;;;;;13.28;91.00;98602.56;5103844;28;20031;-65
2021/07/02 23:58:01;;;;;;;10.75;6.10;;;;;;;13.24;90.55;98606.22;5103806;28;20210;-65
